sensor_id;sensor_type;location;lat;lon;timestamp;temperature;humidity
6102;DHT22;3081;50.584;7.032;2023-04-09T00:01:24;9.70;99.90
6102;DHT22;3081;50.584;7.032;2023-04-09T00:03:51;9.70;99.90
6102;DHT22;3081;50.584;7.032;2023-04-09T00:06:18;9.70;99.90
6102;DHT22;3081;50.584;7.032;2023-04-09T00:08:46;9.70;99.90
6102;DHT22;3081;50.584;7.032;2023-04-09T00:11:13;9.70;99.90
6102;DHT22;3081;50.584;7.032;2023-04-09T00:13:40;9.60;99.90
6102;DHT22;3081;50.584;7.032;2023-04-09T00:16:07;9.50;99.90
6102;DHT22;3081;50.584;7.032;2023-04-09T00:18:34;9.40;99.90
6102;DHT22;3081;50.584;7.032;2023-04-09T00:21:01;9.40;99.90
6102;DHT22;3081;50.584;7.032;2023-04-09T00:23:28;9.50;99.90
6102;DHT22;3081;50.584;7.032;2023-04-09T00:25:56;9.40;99.90
6102;DHT22;3081;50.584;7.032;2023-04-09T00:28:23;9.40;99.90
6102;DHT22;3081;50.584;7.032;2023-04-09T00:30:50;9.40;99.90
6102;DHT22;3081;50.584;7.032;2023-04-09T00:33:17;9.40;99.90
6102;DHT22;3081;50.584;7.032;2023-04-09T00:35:44;9.30;99.90
6102;DHT22;3081;50.584;7.032;2023-04-09T00:38:11;9.40;99.90
6102;DHT22;3081;50.584;7.032;2023-04-09T00:40:38;9.30;99.90
6102;DHT22;3081;50.584;7.032;2023-04-09T00:43:06;9.20;99.90
6102;DHT22;3081;50.584;7.032;2023-04-09T00:45:33;9.10;99.90
6102;DHT22;3081;50.584;7.032;2023-04-09T00:48:00;9.00;99.90
6102;DHT22;3081;50.584;7.032;2023-04-09T00:50:27;9.10;99.90
6102;DHT22;3081;50.584;7.032;2023-04-09T00:52:54;9.10;99.90
6102;DHT22;3081;50.584;7.032;2023-04-09T00:55:21;9.00;99.90
6102;DHT22;3081;50.584;7.032;2023-04-09T00:57:49;9.00;99.90
6102;DHT22;3081;50.584;7.032;2023-04-09T01:00:17;9.00;99.90
6102;DHT22;3081;50.584;7.032;2023-04-09T01:02:44;9.00;99.90
6102;DHT22;3081;50.584;7.032;2023-04-09T01:05:12;9.00;99.90
6102;DHT22;3081;50.584;7.032;2023-04-09T01:07:52;9.00;99.90
6102;DHT22;3081;50.584;7.032;2023-04-09T01:10:26;9.00;99.90
6102;DHT22;3081;50.584;7.032;2023-04-09T01:13:02;9.00;99.90
6102;DHT22;3081;50.584;7.032;2023-04-09T01:15:35;9.00;99.90
6102;DHT22;3081;50.584;7.032;2023-04-09T01:18:06;9.10;99.90
6102;DHT22;3081;50.584;7.032;2023-04-09T01:20:37;9.10;99.90
6102;DHT22;3081;50.584;7.032;2023-04-09T01:23:14;9.20;99.90
6102;DHT22;3081;50.584;7.032;2023-04-09T01:25:57;9.30;99.90
6102;DHT22;3081;50.584;7.032;2023-04-09T01:28:32;9.30;99.90
6102;DHT22;3081;50.584;7.032;2023-04-09T01:31:01;9.20;99.90
6102;DHT22;3081;50.584;7.032;2023-04-09T01:33:30;9.10;99.90
6102;DHT22;3081;50.584;7.032;2023-04-09T01:35:59;9.00;99.90
6102;DHT22;3081;50.584;7.032;2023-04-09T01:38:27;8.90;99.90
6102;DHT22;3081;50.584;7.032;2023-04-09T01:40:54;8.90;99.90
6102;DHT22;3081;50.584;7.032;2023-04-09T01:43:23;8.90;99.90
6102;DHT22;3081;50.584;7.032;2023-04-09T01:45:53;9.00;99.90
6102;DHT22;3081;50.584;7.032;2023-04-09T01:48:20;9.00;99.90
6102;DHT22;3081;50.584;7.032;2023-04-09T01:50:48;9.10;99.90
6102;DHT22;3081;50.584;7.032;2023-04-09T01:53:16;9.10;99.90
6102;DHT22;3081;50.584;7.032;2023-04-09T01:55:43;9.10;99.90
6102;DHT22;3081;50.584;7.032;2023-04-09T01:58:10;9.10;99.90
6102;DHT22;3081;50.584;7.032;2023-04-09T02:00:39;9.10;99.90
6102;DHT22;3081;50.584;7.032;2023-04-09T02:03:14;9.00;99.90
6102;DHT22;3081;50.584;7.032;2023-04-09T02:05:45;9.00;99.90
6102;DHT22;3081;50.584;7.032;2023-04-09T02:08:19;9.00;99.90
6102;DHT22;3081;50.584;7.032;2023-04-09T02:10:50;9.00;99.90
6102;DHT22;3081;50.584;7.032;2023-04-09T02:13:20;9.00;99.90
6102;DHT22;3081;50.584;7.032;2023-04-09T02:15:48;9.00;99.90
6102;DHT22;3081;50.584;7.032;2023-04-09T02:18:28;9.10;99.90
6102;DHT22;3081;50.584;7.032;2023-04-09T02:20:56;9.00;99.90
6102;DHT22;3081;50.584;7.032;2023-04-09T02:23:23;9.10;99.90
6102;DHT22;3081;50.584;7.032;2023-04-09T02:25:51;9.10;99.90
6102;DHT22;3081;50.584;7.032;2023-04-09T02:28:18;9.10;99.90
6102;DHT22;3081;50.584;7.032;2023-04-09T02:30:45;9.10;99.90
6102;DHT22;3081;50.584;7.032;2023-04-09T02:33:12;9.10;99.90
6102;DHT22;3081;50.584;7.032;2023-04-09T02:35:40;9.00;99.90
6102;DHT22;3081;50.584;7.032;2023-04-09T02:38:08;9.00;99.90
6102;DHT22;3081;50.584;7.032;2023-04-09T02:40:38;9.00;99.90
6102;DHT22;3081;50.584;7.032;2023-04-09T02:43:05;9.00;99.90
6102;DHT22;3081;50.584;7.032;2023-04-09T02:45:32;9.00;99.90
6102;DHT22;3081;50.584;7.032;2023-04-09T02:47:59;9.00;99.90
6102;DHT22;3081;50.584;7.032;2023-04-09T02:50:25;9.00;99.90
6102;DHT22;3081;50.584;7.032;2023-04-09T02:52:54;9.00;99.90
6102;DHT22;3081;50.584;7.032;2023-04-09T02:55:21;9.00;99.90
6102;DHT22;3081;50.584;7.032;2023-04-09T02:57:48;9.00;99.90
6102;DHT22;3081;50.584;7.032;2023-04-09T03:00:15;9.00;99.90
6102;DHT22;3081;50.584;7.032;2023-04-09T03:02:42;9.00;99.90
6102;DHT22;3081;50.584;7.032;2023-04-09T03:05:09;9.00;99.90
6102;DHT22;3081;50.584;7.032;2023-04-09T03:07:36;9.00;99.90
6102;DHT22;3081;50.584;7.032;2023-04-09T03:10:05;9.00;99.90
6102;DHT22;3081;50.584;7.032;2023-04-09T03:12:32;9.00;99.90
6102;DHT22;3081;50.584;7.032;2023-04-09T03:14:59;9.00;99.90
6102;DHT22;3081;50.584;7.032;2023-04-09T03:17:25;9.00;99.90
6102;DHT22;3081;50.584;7.032;2023-04-09T03:19:53;9.00;99.90
6102;DHT22;3081;50.584;7.032;2023-04-09T03:22:20;8.90;99.90
6102;DHT22;3081;50.584;7.032;2023-04-09T03:24:47;8.80;99.90
6102;DHT22;3081;50.584;7.032;2023-04-09T03:27:15;8.80;99.90
6102;DHT22;3081;50.584;7.032;2023-04-09T03:29:42;8.70;99.90
6102;DHT22;3081;50.584;7.032;2023-04-09T03:32:09;8.70;99.90
6102;DHT22;3081;50.584;7.032;2023-04-09T03:34:36;8.70;99.90
6102;DHT22;3081;50.584;7.032;2023-04-09T03:37:03;8.70;99.90
6102;DHT22;3081;50.584;7.032;2023-04-09T03:39:30;8.70;99.90
6102;DHT22;3081;50.584;7.032;2023-04-09T03:41:57;8.70;99.90
6102;DHT22;3081;50.584;7.032;2023-04-09T03:44:25;8.70;99.90
6102;DHT22;3081;50.584;7.032;2023-04-09T03:46:52;8.70;99.90
6102;DHT22;3081;50.584;7.032;2023-04-09T03:49:19;8.70;99.90
6102;DHT22;3081;50.584;7.032;2023-04-09T03:51:45;8.60;99.90
6102;DHT22;3081;50.584;7.032;2023-04-09T03:54:12;8.50;99.90
6102;DHT22;3081;50.584;7.032;2023-04-09T03:56:39;8.50;99.90
6102;DHT22;3081;50.584;7.032;2023-04-09T03:59:07;8.60;99.90
6102;DHT22;3081;50.584;7.032;2023-04-09T04:01:35;8.60;99.90
6102;DHT22;3081;50.584;7.032;2023-04-09T04:04:02;8.70;99.90
6102;DHT22;3081;50.584;7.032;2023-04-09T04:06:32;8.70;99.90
6102;DHT22;3081;50.584;7.032;2023-04-09T04:08:59;8.80;99.90
6102;DHT22;3081;50.584;7.032;2023-04-09T04:11:26;8.70;99.90
6102;DHT22;3081;50.584;7.032;2023-04-09T04:13:53;8.70;99.90
6102;DHT22;3081;50.584;7.032;2023-04-09T04:16:20;8.60;99.90
6102;DHT22;3081;50.584;7.032;2023-04-09T04:18:49;8.60;99.90
6102;DHT22;3081;50.584;7.032;2023-04-09T04:21:16;8.60;99.90
6102;DHT22;3081;50.584;7.032;2023-04-09T04:23:43;8.60;99.90
6102;DHT22;3081;50.584;7.032;2023-04-09T04:26:10;8.60;99.90
6102;DHT22;3081;50.584;7.032;2023-04-09T04:28:38;8.60;99.90
6102;DHT22;3081;50.584;7.032;2023-04-09T04:31:07;8.60;99.90
6102;DHT22;3081;50.584;7.032;2023-04-09T04:33:35;8.50;99.90
6102;DHT22;3081;50.584;7.032;2023-04-09T04:36:08;8.40;99.90
6102;DHT22;3081;50.584;7.032;2023-04-09T04:38:36;8.30;99.90
6102;DHT22;3081;50.584;7.032;2023-04-09T04:41:03;8.30;99.90
6102;DHT22;3081;50.584;7.032;2023-04-09T04:43:30;8.20;99.90
6102;DHT22;3081;50.584;7.032;2023-04-09T04:45:57;8.10;99.90
6102;DHT22;3081;50.584;7.032;2023-04-09T04:48:24;8.10;99.90
6102;DHT22;3081;50.584;7.032;2023-04-09T04:50:56;8.00;99.90
6102;DHT22;3081;50.584;7.032;2023-04-09T04:53:25;8.00;99.90
6102;DHT22;3081;50.584;7.032;2023-04-09T04:55:52;8.00;99.90
6102;DHT22;3081;50.584;7.032;2023-04-09T04:58:19;8.00;99.90
6102;DHT22;3081;50.584;7.032;2023-04-09T05:00:46;7.90;99.90
6102;DHT22;3081;50.584;7.032;2023-04-09T05:03:13;7.90;99.90
6102;DHT22;3081;50.584;7.032;2023-04-09T05:05:40;7.90;99.90
6102;DHT22;3081;50.584;7.032;2023-04-09T05:08:07;7.80;99.90
6102;DHT22;3081;50.584;7.032;2023-04-09T05:10:35;7.70;99.90
6102;DHT22;3081;50.584;7.032;2023-04-09T05:13:02;7.70;99.90
6102;DHT22;3081;50.584;7.032;2023-04-09T05:15:29;7.70;99.90
6102;DHT22;3081;50.584;7.032;2023-04-09T05:17:56;7.80;99.90
6102;DHT22;3081;50.584;7.032;2023-04-09T05:20:25;7.80;99.90
6102;DHT22;3081;50.584;7.032;2023-04-09T05:22:52;7.80;99.90
6102;DHT22;3081;50.584;7.032;2023-04-09T05:25:19;7.80;99.90
6102;DHT22;3081;50.584;7.032;2023-04-09T05:27:47;7.80;99.90
6102;DHT22;3081;50.584;7.032;2023-04-09T05:30:15;7.70;99.90
6102;DHT22;3081;50.584;7.032;2023-04-09T05:32:42;7.80;99.90
6102;DHT22;3081;50.584;7.032;2023-04-09T05:35:09;7.80;99.90
6102;DHT22;3081;50.584;7.032;2023-04-09T05:37:35;7.80;99.90
6102;DHT22;3081;50.584;7.032;2023-04-09T05:40:03;7.90;99.90
6102;DHT22;3081;50.584;7.032;2023-04-09T05:42:30;8.00;99.90
6102;DHT22;3081;50.584;7.032;2023-04-09T05:44:58;7.90;99.90
6102;DHT22;3081;50.584;7.032;2023-04-09T05:47:25;8.00;99.90
6102;DHT22;3081;50.584;7.032;2023-04-09T05:49:53;8.10;99.90
6102;DHT22;3081;50.584;7.032;2023-04-09T05:52:20;8.00;99.90
6102;DHT22;3081;50.584;7.032;2023-04-09T05:54:47;8.20;99.90
6102;DHT22;3081;50.584;7.032;2023-04-09T05:57:14;8.30;99.90
6102;DHT22;3081;50.584;7.032;2023-04-09T05:59:41;8.40;99.90
6102;DHT22;3081;50.584;7.032;2023-04-09T06:02:09;8.40;99.90
6102;DHT22;3081;50.584;7.032;2023-04-09T06:04:36;8.50;99.90
6102;DHT22;3081;50.584;7.032;2023-04-09T06:07:03;8.50;99.90
6102;DHT22;3081;50.584;7.032;2023-04-09T06:09:30;8.50;99.90
6102;DHT22;3081;50.584;7.032;2023-04-09T06:11:57;8.70;99.90
6102;DHT22;3081;50.584;7.032;2023-04-09T06:14:23;8.70;99.90
6102;DHT22;3081;50.584;7.032;2023-04-09T06:16:50;8.80;99.90
6102;DHT22;3081;50.584;7.032;2023-04-09T06:19:19;8.80;99.90
6102;DHT22;3081;50.584;7.032;2023-04-09T06:21:46;9.00;99.90
6102;DHT22;3081;50.584;7.032;2023-04-09T06:24:12;9.10;99.90
6102;DHT22;3081;50.584;7.032;2023-04-09T06:26:39;9.20;99.90
6102;DHT22;3081;50.584;7.032;2023-04-09T06:29:06;9.30;99.90
6102;DHT22;3081;50.584;7.032;2023-04-09T06:31:33;9.40;99.90
6102;DHT22;3081;50.584;7.032;2023-04-09T06:34:00;9.50;99.90
6102;DHT22;3081;50.584;7.032;2023-04-09T06:36:29;9.50;99.90
6102;DHT22;3081;50.584;7.032;2023-04-09T06:38:55;9.50;99.90
6102;DHT22;3081;50.584;7.032;2023-04-09T06:41:23;9.60;99.90
6102;DHT22;3081;50.584;7.032;2023-04-09T06:43:51;9.70;99.90
6102;DHT22;3081;50.584;7.032;2023-04-09T06:46:18;9.80;99.90
6102;DHT22;3081;50.584;7.032;2023-04-09T06:48:46;9.90;99.90
6102;DHT22;3081;50.584;7.032;2023-04-09T06:51:13;10.10;99.90
6102;DHT22;3081;50.584;7.032;2023-04-09T06:53:41;10.30;99.90
6102;DHT22;3081;50.584;7.032;2023-04-09T06:56:08;10.40;99.90
6102;DHT22;3081;50.584;7.032;2023-04-09T06:58:35;10.60;99.90
6102;DHT22;3081;50.584;7.032;2023-04-09T07:01:02;10.60;99.90
6102;DHT22;3081;50.584;7.032;2023-04-09T07:03:30;10.70;99.90
6102;DHT22;3081;50.584;7.032;2023-04-09T07:05:57;10.70;99.90
6102;DHT22;3081;50.584;7.032;2023-04-09T07:08:24;10.60;99.90
6102;DHT22;3081;50.584;7.032;2023-04-09T07:10:52;10.60;99.90
6102;DHT22;3081;50.584;7.032;2023-04-09T07:13:19;10.50;99.90
6102;DHT22;3081;50.584;7.032;2023-04-09T07:15:46;10.50;99.90
6102;DHT22;3081;50.584;7.032;2023-04-09T07:18:13;10.50;99.90
6102;DHT22;3081;50.584;7.032;2023-04-09T07:20:40;10.50;99.90
6102;DHT22;3081;50.584;7.032;2023-04-09T07:23:07;10.50;99.90
6102;DHT22;3081;50.584;7.032;2023-04-09T07:25:34;10.60;99.90
6102;DHT22;3081;50.584;7.032;2023-04-09T07:28:02;10.70;99.90
6102;DHT22;3081;50.584;7.032;2023-04-09T07:30:29;10.80;99.90
6102;DHT22;3081;50.584;7.032;2023-04-09T07:32:56;10.80;99.90
6102;DHT22;3081;50.584;7.032;2023-04-09T07:35:23;10.90;99.90
6102;DHT22;3081;50.584;7.032;2023-04-09T07:37:50;11.10;99.90
6102;DHT22;3081;50.584;7.032;2023-04-09T07:40:17;11.20;99.90
6102;DHT22;3081;50.584;7.032;2023-04-09T07:42:44;11.30;99.90
6102;DHT22;3081;50.584;7.032;2023-04-09T07:45:12;11.40;99.90
6102;DHT22;3081;50.584;7.032;2023-04-09T07:47:39;11.50;99.90
6102;DHT22;3081;50.584;7.032;2023-04-09T07:50:07;11.70;99.90
6102;DHT22;3081;50.584;7.032;2023-04-09T07:52:34;11.70;99.90
6102;DHT22;3081;50.584;7.032;2023-04-09T07:55:01;11.80;99.90
6102;DHT22;3081;50.584;7.032;2023-04-09T07:57:30;11.80;99.90
6102;DHT22;3081;50.584;7.032;2023-04-09T07:59:57;11.90;99.90
6102;DHT22;3081;50.584;7.032;2023-04-09T08:02:25;12.00;99.90
6102;DHT22;3081;50.584;7.032;2023-04-09T08:04:52;12.10;99.90
6102;DHT22;3081;50.584;7.032;2023-04-09T08:07:19;12.10;99.90
6102;DHT22;3081;50.584;7.032;2023-04-09T08:09:46;12.20;99.90
6102;DHT22;3081;50.584;7.032;2023-04-09T08:12:13;12.20;99.90
6102;DHT22;3081;50.584;7.032;2023-04-09T08:14:40;12.30;99.90
6102;DHT22;3081;50.584;7.032;2023-04-09T08:17:08;12.40;99.90
6102;DHT22;3081;50.584;7.032;2023-04-09T08:19:36;12.40;99.90
6102;DHT22;3081;50.584;7.032;2023-04-09T08:22:03;12.40;99.90
6102;DHT22;3081;50.584;7.032;2023-04-09T08:24:30;12.60;99.90
6102;DHT22;3081;50.584;7.032;2023-04-09T08:26:57;12.80;99.90
6102;DHT22;3081;50.584;7.032;2023-04-09T08:29:25;12.90;99.90
6102;DHT22;3081;50.584;7.032;2023-04-09T08:31:52;13.00;99.90
6102;DHT22;3081;50.584;7.032;2023-04-09T08:34:19;13.10;99.90
6102;DHT22;3081;50.584;7.032;2023-04-09T08:36:48;13.30;99.90
6102;DHT22;3081;50.584;7.032;2023-04-09T08:39:15;13.30;99.90
6102;DHT22;3081;50.584;7.032;2023-04-09T08:41:44;13.40;99.90
6102;DHT22;3081;50.584;7.032;2023-04-09T08:44:12;13.70;99.90
6102;DHT22;3081;50.584;7.032;2023-04-09T08:46:39;13.80;99.90
6102;DHT22;3081;50.584;7.032;2023-04-09T08:49:07;13.90;99.90
6102;DHT22;3081;50.584;7.032;2023-04-09T08:51:35;14.20;99.90
6102;DHT22;3081;50.584;7.032;2023-04-09T08:54:03;14.90;99.90
6102;DHT22;3081;50.584;7.032;2023-04-09T08:56:30;15.90;99.90
6102;DHT22;3081;50.584;7.032;2023-04-09T08:58:57;16.70;99.90
6102;DHT22;3081;50.584;7.032;2023-04-09T09:01:25;16.50;99.90
6102;DHT22;3081;50.584;7.032;2023-04-09T09:03:55;16.70;99.90
6102;DHT22;3081;50.584;7.032;2023-04-09T09:06:22;16.70;99.90
6102;DHT22;3081;50.584;7.032;2023-04-09T09:09:07;16.30;99.90
6102;DHT22;3081;50.584;7.032;2023-04-09T09:11:35;16.10;99.90
6102;DHT22;3081;50.584;7.032;2023-04-09T09:14:04;15.90;99.90
6102;DHT22;3081;50.584;7.032;2023-04-09T09:16:32;16.30;99.90
6102;DHT22;3081;50.584;7.032;2023-04-09T09:19:00;17.40;99.90
6102;DHT22;3081;50.584;7.032;2023-04-09T09:21:28;18.50;97.10
6102;DHT22;3081;50.584;7.032;2023-04-09T09:23:55;19.50;94.80
6102;DHT22;3081;50.584;7.032;2023-04-09T09:26:25;20.40;93.10
6102;DHT22;3081;50.584;7.032;2023-04-09T09:28:55;21.00;90.00
6102;DHT22;3081;50.584;7.032;2023-04-09T09:31:23;21.60;84.80
6102;DHT22;3081;50.584;7.032;2023-04-09T09:33:50;21.70;81.90
6102;DHT22;3081;50.584;7.032;2023-04-09T09:36:30;21.60;81.20
6102;DHT22;3081;50.584;7.032;2023-04-09T09:38:59;21.40;79.90
6102;DHT22;3081;50.584;7.032;2023-04-09T09:41:29;22.00;79.10
6102;DHT22;3081;50.584;7.032;2023-04-09T09:43:57;22.60;75.60
6102;DHT22;3081;50.584;7.032;2023-04-09T09:46:24;22.70;75.00
6102;DHT22;3081;50.584;7.032;2023-04-09T09:48:52;23.00;74.60
6102;DHT22;3081;50.584;7.032;2023-04-09T09:51:23;23.10;70.20
6102;DHT22;3081;50.584;7.032;2023-04-09T09:53:54;22.40;68.20
6102;DHT22;3081;50.584;7.032;2023-04-09T09:56:23;20.90;68.70
6102;DHT22;3081;50.584;7.032;2023-04-09T09:59:01;20.80;72.10
6102;DHT22;3081;50.584;7.032;2023-04-09T10:01:32;21.30;73.60
6102;DHT22;3081;50.584;7.032;2023-04-09T10:03:59;20.90;73.10
6102;DHT22;3081;50.584;7.032;2023-04-09T10:06:29;20.40;74.50
6102;DHT22;3081;50.584;7.032;2023-04-09T10:08:57;20.10;74.10
6102;DHT22;3081;50.584;7.032;2023-04-09T10:11:25;19.80;72.10
6102;DHT22;3081;50.584;7.032;2023-04-09T10:13:56;18.90;73.50
6102;DHT22;3081;50.584;7.032;2023-04-09T10:16:25;18.80;76.30
6102;DHT22;3081;50.584;7.032;2023-04-09T10:18:52;19.50;74.00
6102;DHT22;3081;50.584;7.032;2023-04-09T10:21:28;20.10;73.80
6102;DHT22;3081;50.584;7.032;2023-04-09T10:23:57;20.50;72.00
6102;DHT22;3081;50.584;7.032;2023-04-09T10:26:25;20.90;71.80
6102;DHT22;3081;50.584;7.032;2023-04-09T10:29:05;20.80;69.70
6102;DHT22;3081;50.584;7.032;2023-04-09T10:31:47;19.70;70.90
6102;DHT22;3081;50.584;7.032;2023-04-09T10:34:17;19.00;72.80
6102;DHT22;3081;50.584;7.032;2023-04-09T10:36:48;18.40;73.70
6102;DHT22;3081;50.584;7.032;2023-04-09T10:39:16;18.20;74.90
6102;DHT22;3081;50.584;7.032;2023-04-09T10:41:43;17.90;77.20
6102;DHT22;3081;50.584;7.032;2023-04-09T10:44:22;17.90;77.40
6102;DHT22;3081;50.584;7.032;2023-04-09T10:46:53;18.50;75.40
6102;DHT22;3081;50.584;7.032;2023-04-09T10:49:21;18.90;74.80
6102;DHT22;3081;50.584;7.032;2023-04-09T10:51:52;19.50;72.50
6102;DHT22;3081;50.584;7.032;2023-04-09T10:54:40;19.50;72.50
6102;DHT22;3081;50.584;7.032;2023-04-09T10:57:18;18.80;73.70
6102;DHT22;3081;50.584;7.032;2023-04-09T10:59:47;17.80;76.10
6102;DHT22;3081;50.584;7.032;2023-04-09T11:02:42;17.00;78.10
6102;DHT22;3081;50.584;7.032;2023-04-09T11:05:18;16.70;78.80
6102;DHT22;3081;50.584;7.032;2023-04-09T11:08:03;16.80;78.70
6102;DHT22;3081;50.584;7.032;2023-04-09T11:10:31;17.00;77.50
6102;DHT22;3081;50.584;7.032;2023-04-09T11:12:58;17.20;77.80
6102;DHT22;3081;50.584;7.032;2023-04-09T11:15:25;17.60;76.30
6102;DHT22;3081;50.584;7.032;2023-04-09T11:17:53;17.80;75.80
6102;DHT22;3081;50.584;7.032;2023-04-09T11:20:22;18.10;76.40
6102;DHT22;3081;50.584;7.032;2023-04-09T11:22:50;18.40;77.20
6102;DHT22;3081;50.584;7.032;2023-04-09T11:25:19;18.60;76.70
6102;DHT22;3081;50.584;7.032;2023-04-09T11:27:46;18.70;75.00
6102;DHT22;3081;50.584;7.032;2023-04-09T11:30:13;18.30;74.50
6102;DHT22;3081;50.584;7.032;2023-04-09T11:32:40;17.90;75.70
6102;DHT22;3081;50.584;7.032;2023-04-09T11:35:12;17.80;75.80
6102;DHT22;3081;50.584;7.032;2023-04-09T11:37:41;17.90;77.10
6102;DHT22;3081;50.584;7.032;2023-04-09T11:40:14;18.00;75.00
6102;DHT22;3081;50.584;7.032;2023-04-09T11:42:44;18.20;74.40
6102;DHT22;3081;50.584;7.032;2023-04-09T11:45:12;18.20;75.10
6102;DHT22;3081;50.584;7.032;2023-04-09T11:47:39;17.80;73.20
6102;DHT22;3081;50.584;7.032;2023-04-09T11:50:08;17.00;75.40
6102;DHT22;3081;50.584;7.032;2023-04-09T11:52:37;17.10;76.10
6102;DHT22;3081;50.584;7.032;2023-04-09T11:55:06;17.70;76.50
6102;DHT22;3081;50.584;7.032;2023-04-09T11:57:41;18.00;74.30
6102;DHT22;3081;50.584;7.032;2023-04-09T12:00:10;17.90;74.60
6102;DHT22;3081;50.584;7.032;2023-04-09T12:02:41;17.50;74.70
6102;DHT22;3081;50.584;7.032;2023-04-09T12:05:10;17.50;75.90
6102;DHT22;3081;50.584;7.032;2023-04-09T12:07:39;17.30;75.60
6102;DHT22;3081;50.584;7.032;2023-04-09T12:10:08;17.10;76.70
6102;DHT22;3081;50.584;7.032;2023-04-09T12:12:39;17.10;75.10
6102;DHT22;3081;50.584;7.032;2023-04-09T12:15:19;17.10;76.10
6102;DHT22;3081;50.584;7.032;2023-04-09T12:17:50;17.10;75.00
6102;DHT22;3081;50.584;7.032;2023-04-09T12:20:30;17.00;75.40
6102;DHT22;3081;50.584;7.032;2023-04-09T12:23:00;16.50;76.00
6102;DHT22;3081;50.584;7.032;2023-04-09T12:25:28;16.20;76.50
6102;DHT22;3081;50.584;7.032;2023-04-09T12:27:55;16.30;77.70
6102;DHT22;3081;50.584;7.032;2023-04-09T12:30:23;16.70;77.30
6102;DHT22;3081;50.584;7.032;2023-04-09T12:32:51;17.20;75.70
6102;DHT22;3081;50.584;7.032;2023-04-09T12:35:18;17.60;74.40
6102;DHT22;3081;50.584;7.032;2023-04-09T12:37:45;17.70;74.50
6102;DHT22;3081;50.584;7.032;2023-04-09T12:40:14;17.60;73.90
6102;DHT22;3081;50.584;7.032;2023-04-09T12:42:41;17.40;74.40
6102;DHT22;3081;50.584;7.032;2023-04-09T12:45:10;17.20;75.00
6102;DHT22;3081;50.584;7.032;2023-04-09T12:47:37;17.00;74.40
6102;DHT22;3081;50.584;7.032;2023-04-09T12:50:07;16.70;75.70
6102;DHT22;3081;50.584;7.032;2023-04-09T12:52:35;16.50;77.10
6102;DHT22;3081;50.584;7.032;2023-04-09T12:55:02;16.50;76.00
6102;DHT22;3081;50.584;7.032;2023-04-09T12:57:31;16.50;76.10
6102;DHT22;3081;50.584;7.032;2023-04-09T12:59:58;16.70;76.40
6102;DHT22;3081;50.584;7.032;2023-04-09T13:02:25;16.60;73.40
6102;DHT22;3081;50.584;7.032;2023-04-09T13:04:52;16.50;74.60
6102;DHT22;3081;50.584;7.032;2023-04-09T13:07:19;16.60;75.70
6102;DHT22;3081;50.584;7.032;2023-04-09T13:09:47;16.40;78.60
6102;DHT22;3081;50.584;7.032;2023-04-09T13:12:15;16.40;78.40
6102;DHT22;3081;50.584;7.032;2023-04-09T13:14:46;16.20;78.60
6102;DHT22;3081;50.584;7.032;2023-04-09T13:17:13;16.30;77.90
6102;DHT22;3081;50.584;7.032;2023-04-09T13:19:40;17.40;74.50
6102;DHT22;3081;50.584;7.032;2023-04-09T13:22:07;18.60;72.90
6102;DHT22;3081;50.584;7.032;2023-04-09T13:24:34;20.00;70.20
6102;DHT22;3081;50.584;7.032;2023-04-09T13:27:02;20.80;67.60
6102;DHT22;3081;50.584;7.032;2023-04-09T13:29:29;20.70;65.20
6102;DHT22;3081;50.584;7.032;2023-04-09T13:31:57;20.00;66.70
6102;DHT22;3081;50.584;7.032;2023-04-09T13:34:27;19.70;68.70
6102;DHT22;3081;50.584;7.032;2023-04-09T13:36:54;19.70;70.00
6102;DHT22;3081;50.584;7.032;2023-04-09T13:39:21;19.60;67.90
6102;DHT22;3081;50.584;7.032;2023-04-09T13:41:48;19.20;69.50
6102;DHT22;3081;50.584;7.032;2023-04-09T13:44:14;20.70;70.50
6102;DHT22;3081;50.584;7.032;2023-04-09T13:46:41;23.00;66.50
6102;DHT22;3081;50.584;7.032;2023-04-09T13:49:10;25.30;62.00
6102;DHT22;3081;50.584;7.032;2023-04-09T13:51:37;27.00;57.50
6102;DHT22;3081;50.584;7.032;2023-04-09T13:54:04;26.30;54.40
6102;DHT22;3081;50.584;7.032;2023-04-09T13:56:32;24.40;56.20
6102;DHT22;3081;50.584;7.032;2023-04-09T13:58:59;22.20;59.10
6102;DHT22;3081;50.584;7.032;2023-04-09T14:01:26;20.80;61.50
6102;DHT22;3081;50.584;7.032;2023-04-09T14:03:53;19.80;64.50
6102;DHT22;3081;50.584;7.032;2023-04-09T14:06:21;19.90;65.80
6102;DHT22;3081;50.584;7.032;2023-04-09T14:08:48;20.20;64.50
6102;DHT22;3081;50.584;7.032;2023-04-09T14:11:15;20.20;66.30
6102;DHT22;3081;50.584;7.032;2023-04-09T14:13:42;20.50;65.30
6102;DHT22;3081;50.584;7.032;2023-04-09T14:16:09;20.60;64.20
6102;DHT22;3081;50.584;7.032;2023-04-09T14:18:36;21.00;64.30
6102;DHT22;3081;50.584;7.032;2023-04-09T14:21:05;23.30;61.10
6102;DHT22;3081;50.584;7.032;2023-04-09T14:23:33;24.20;58.80
6102;DHT22;3081;50.584;7.032;2023-04-09T14:26:01;24.00;58.30
6102;DHT22;3081;50.584;7.032;2023-04-09T14:28:29;23.50;58.60
6102;DHT22;3081;50.584;7.032;2023-04-09T14:30:56;22.80;60.10
6102;DHT22;3081;50.584;7.032;2023-04-09T14:33:23;22.50;60.20
6102;DHT22;3081;50.584;7.032;2023-04-09T14:35:50;21.80;61.10
6102;DHT22;3081;50.584;7.032;2023-04-09T14:38:17;21.10;62.10
6102;DHT22;3081;50.584;7.032;2023-04-09T14:40:46;20.70;63.40
6102;DHT22;3081;50.584;7.032;2023-04-09T14:43:13;20.70;63.20
6102;DHT22;3081;50.584;7.032;2023-04-09T14:45:40;23.20;62.80
6102;DHT22;3081;50.584;7.032;2023-04-09T14:48:07;26.90;57.00
6102;DHT22;3081;50.584;7.032;2023-04-09T14:50:34;28.40;54.00
6102;DHT22;3081;50.584;7.032;2023-04-09T14:53:01;28.60;52.70
6102;DHT22;3081;50.584;7.032;2023-04-09T14:55:28;31.20;51.20
6102;DHT22;3081;50.584;7.032;2023-04-09T14:57:58;33.70;46.00
6102;DHT22;3081;50.584;7.032;2023-04-09T15:00:26;35.30;43.50
6102;DHT22;3081;50.584;7.032;2023-04-09T15:02:53;36.20;39.90
6102;DHT22;3081;50.584;7.032;2023-04-09T15:05:20;34.90;38.30
6102;DHT22;3081;50.584;7.032;2023-04-09T15:07:46;33.40;39.80
6102;DHT22;3081;50.584;7.032;2023-04-09T15:10:14;34.50;39.10
6102;DHT22;3081;50.584;7.032;2023-04-09T15:12:41;36.30;37.20
6102;DHT22;3081;50.584;7.032;2023-04-09T15:15:09;37.20;36.80
6102;DHT22;3081;50.584;7.032;2023-04-09T15:17:38;38.40;35.20
6102;DHT22;3081;50.584;7.032;2023-04-09T15:20:06;39.30;34.10
6102;DHT22;3081;50.584;7.032;2023-04-09T15:22:33;39.50;33.10
6102;DHT22;3081;50.584;7.032;2023-04-09T15:25:00;39.00;32.70
6102;DHT22;3081;50.584;7.032;2023-04-09T15:27:27;38.80;32.50
6102;DHT22;3081;50.584;7.032;2023-04-09T15:29:54;38.80;32.60
6102;DHT22;3081;50.584;7.032;2023-04-09T15:32:22;39.40;31.60
6102;DHT22;3081;50.584;7.032;2023-04-09T15:34:49;39.20;31.70
6102;DHT22;3081;50.584;7.032;2023-04-09T15:37:17;38.80;32.40
6102;DHT22;3081;50.584;7.032;2023-04-09T15:39:43;39.40;32.00
6102;DHT22;3081;50.584;7.032;2023-04-09T15:42:10;39.20;31.40
6102;DHT22;3081;50.584;7.032;2023-04-09T15:44:38;37.00;32.50
6102;DHT22;3081;50.584;7.032;2023-04-09T15:47:05;37.00;33.30
6102;DHT22;3081;50.584;7.032;2023-04-09T15:49:35;37.20;32.40
6102;DHT22;3081;50.584;7.032;2023-04-09T15:52:02;36.70;33.20
6102;DHT22;3081;50.584;7.032;2023-04-09T15:54:29;36.50;32.80
6102;DHT22;3081;50.584;7.032;2023-04-09T15:56:56;36.20;33.90
6102;DHT22;3081;50.584;7.032;2023-04-09T15:59:23;36.30;33.10
6102;DHT22;3081;50.584;7.032;2023-04-09T16:01:51;35.20;34.30
6102;DHT22;3081;50.584;7.032;2023-04-09T16:04:18;35.00;34.30
6102;DHT22;3081;50.584;7.032;2023-04-09T16:06:46;35.10;34.70
6102;DHT22;3081;50.584;7.032;2023-04-09T16:09:13;36.40;34.10
6102;DHT22;3081;50.584;7.032;2023-04-09T16:11:40;37.40;32.70
6102;DHT22;3081;50.584;7.032;2023-04-09T16:14:07;34.50;33.30
6102;DHT22;3081;50.584;7.032;2023-04-09T16:16:35;32.30;35.70